createdAt,value
2018-05-09T00:01:58.364Z,97933.54
2018-05-09T00:04:27.872Z,97927.83
2018-05-09T00:06:56.524Z,97926.32
2018-05-09T00:09:26.133Z,97920.66
2018-05-09T00:11:54.753Z,97917.43
2018-05-09T00:14:23.963Z,97916.24
2018-05-09T00:16:53.263Z,97917.02
2018-05-09T00:19:22.502Z,97910.67
2018-05-09T00:21:51.826Z,97902.17
2018-05-09T00:24:20.465Z,97908.16
2018-05-09T00:26:49.975Z,97905.73
2018-05-09T00:29:18.615Z,97902.63
2018-05-09T00:31:47.158Z,97896.02
2018-05-09T00:34:16.595Z,97902.12
2018-05-09T00:36:45.151Z,97906.34
2018-05-09T00:39:14.099Z,97900.19
2018-05-09T00:41:43.615Z,97898.52
2018-05-09T00:44:12.480Z,97901.69
2018-05-09T00:46:41.697Z,97903.43
2018-05-09T00:49:10.450Z,97901.42
2018-05-09T00:51:39.734Z,97902.59
2018-05-09T00:54:36.748Z,97906.98
2018-05-09T00:57:06.480Z,97904.59
2018-05-09T00:59:35.192Z,97904.02
2018-05-09T01:02:03.766Z,97899.55
2018-05-09T01:04:33.880Z,97901.27
2018-05-09T01:07:02.412Z,97891.80
2018-05-09T01:09:31.713Z,97893.94
2018-05-09T01:12:00.422Z,97884.34
2018-05-09T01:14:30.002Z,97886.84
2018-05-09T01:16:58.654Z,97894.61
2018-05-09T01:19:27.288Z,97899.58
2018-05-09T01:21:56.388Z,97902.75
2018-05-09T01:24:25.994Z,97896.96
2018-05-09T01:26:55.543Z,97903.72
2018-05-09T01:29:25.103Z,97899.19
2018-05-09T01:31:53.615Z,97901.56
2018-05-09T01:34:22.095Z,97903.61
2018-05-09T01:36:51.580Z,97892.97
2018-05-09T01:39:20.292Z,97894.70
2018-05-09T01:41:48.894Z,97893.55
2018-05-09T01:44:17.669Z,97900.38
2018-05-09T01:46:46.170Z,97896.13
2018-05-09T01:49:14.760Z,97897.28
2018-05-09T01:51:43.266Z,97894.72
2018-05-09T01:54:12.653Z,97892.45
2018-05-09T01:56:42.789Z,97888.58
2018-05-09T01:59:11.533Z,97876.09
2018-05-09T02:01:40.134Z,97882.08
2018-05-09T02:04:09.547Z,97883.76
2018-05-09T02:06:38.126Z,97875.54
2018-05-09T02:09:06.829Z,97876.63
2018-05-09T02:11:35.468Z,97873.80
2018-05-09T02:14:05.017Z,97864.81
2018-05-09T02:16:33.521Z,97862.30
2018-05-09T02:19:02.176Z,97861.19
2018-05-09T02:21:30.664Z,97872.36
2018-05-09T02:23:59.543Z,97878.48
2018-05-09T02:26:29.052Z,97878.53
2018-05-09T02:28:58.932Z,97878.41
2018-05-09T02:31:27.458Z,97872.73
2018-05-09T02:33:56.867Z,97881.28
2018-05-09T02:36:25.534Z,97876.23
2018-05-09T02:38:54.202Z,97879.69
2018-05-09T02:41:22.730Z,97876.52
2018-05-09T02:43:52.034Z,97873.10
2018-05-09T02:46:21.503Z,97866.66
2018-05-09T02:48:49.988Z,97868.95
2018-05-09T02:51:18.808Z,97869.67
2018-05-09T02:53:47.396Z,97876.14
2018-05-09T02:56:16.717Z,97875.18
2018-05-09T02:58:46.855Z,97876.65
2018-05-09T03:01:16.413Z,97879.94
2018-05-09T03:03:45.843Z,97881.98
2018-05-09T03:06:14.418Z,97874.77
2018-05-09T03:08:43.900Z,97874.19
2018-05-09T03:11:12.552Z,97872.05
2018-05-09T03:13:41.102Z,97872.05
2018-05-09T03:16:09.901Z,97874.87
2018-05-09T03:18:38.687Z,97871.83
2018-05-09T03:21:07.310Z,97867.93
2018-05-09T03:23:35.993Z,97876.02
2018-05-09T03:26:05.231Z,97871.79
2018-05-09T03:28:34.032Z,97868.16
2018-05-09T03:31:02.865Z,97872.36
2018-05-09T03:33:31.501Z,97870.78
2018-05-09T03:36:00.061Z,97870.68
2018-05-09T03:38:28.704Z,97869.91
2018-05-09T03:40:57.263Z,97872.33
2018-05-09T03:43:25.847Z,97864.55
2018-05-09T03:45:55.294Z,97868.81
2018-05-09T03:48:23.915Z,97864.88
2018-05-09T03:50:52.500Z,97867.02
2018-05-09T03:53:21.098Z,97866.87
2018-05-09T03:55:50.789Z,97870.74
2018-05-09T03:58:19.867Z,97866.17
2018-05-09T04:00:49.535Z,97864.16
2018-05-09T04:03:36.043Z,97867.59
2018-05-09T04:06:23.243Z,97866.17
2018-05-09T04:09:09.459Z,97865.97
2018-05-09T04:11:38.737Z,97870.06
2018-05-09T04:14:07.337Z,97863.37
2018-05-09T04:16:36.560Z,97874.02
2018-05-09T04:19:05.858Z,97872.75
2018-05-09T04:21:35.479Z,97878.88
2018-05-09T04:24:04.780Z,97887.53
2018-05-09T04:26:33.229Z,97889.58
2018-05-09T04:29:02.035Z,97888.63
2018-05-09T04:31:30.593Z,97888.31
2018-05-09T04:33:59.175Z,97885.89
2018-05-09T04:36:27.777Z,97894.28
2018-05-09T04:38:56.421Z,97889.50
2018-05-09T04:41:25.852Z,97889.55
2018-05-09T04:43:54.518Z,97887.25
2018-05-09T04:46:23.887Z,97896.61
2018-05-09T04:48:53.713Z,97893.34
2018-05-09T04:51:24.108Z,97892.11
2018-05-09T04:53:52.714Z,97886.16
2018-05-09T04:56:21.225Z,97885.26
2018-05-09T04:58:50.008Z,97890.16
2018-05-09T05:01:18.549Z,97896.92
2018-05-09T05:03:47.214Z,97886.68
2018-05-09T05:06:16.018Z,97889.44
2018-05-09T05:08:44.785Z,97884.65
2018-05-09T05:11:13.547Z,97888.61
2018-05-09T05:13:42.357Z,97886.82
2018-05-09T05:16:11.112Z,97890.95
2018-05-09T05:18:39.976Z,97891.63
2018-05-09T05:21:09.237Z,97889.67
2018-05-09T05:23:42.408Z,97891.12
2018-05-09T05:26:11.386Z,97891.77
2018-05-09T05:28:40.977Z,97896.00
2018-05-09T05:31:09.788Z,97894.03
2018-05-09T05:33:38.596Z,97898.94
2018-05-09T05:36:07.383Z,97898.33
2018-05-09T05:38:35.929Z,97895.86
2018-05-09T05:41:05.478Z,97895.31
2018-05-09T05:43:34.319Z,97894.80
2018-05-09T05:46:03.066Z,97907.39
2018-05-09T05:48:32.451Z,97906.47
2018-05-09T05:51:02.072Z,97909.80
2018-05-09T05:53:31.283Z,97916.41
2018-05-09T05:56:00.030Z,97917.52
2018-05-09T05:58:28.722Z,97914.83
2018-05-09T06:00:57.724Z,97922.59
2018-05-09T06:03:26.362Z,97922.01
2018-05-09T06:05:54.897Z,97917.10
2018-05-09T06:08:23.669Z,97923.64
2018-05-09T06:10:52.214Z,97917.52
2018-05-09T06:13:21.494Z,97921.78
2018-05-09T06:15:50.188Z,97916.97
2018-05-09T06:18:18.789Z,97921.77
2018-05-09T06:20:48.203Z,97915.73
2018-05-09T06:23:17.084Z,97913.43
2018-05-09T06:25:46.080Z,97921.72
2018-05-09T06:28:14.716Z,97928.63
2018-05-09T06:30:44.003Z,97925.58
2018-05-09T06:33:12.609Z,97924.45
2018-05-09T06:35:41.175Z,97929.11
2018-05-09T06:38:09.781Z,97933.27
2018-05-09T06:40:38.434Z,97935.94
2018-05-09T06:43:07.071Z,97932.80
2018-05-09T06:45:35.697Z,97935.33
2018-05-09T06:48:04.264Z,97933.83
2018-05-09T06:50:32.922Z,97935.77
2018-05-09T06:53:01.482Z,97933.93
2018-05-09T06:55:31.616Z,97938.39
2018-05-09T06:58:01.383Z,97937.98
2018-05-09T07:00:29.999Z,97936.52
2018-05-09T07:02:58.749Z,97933.74
2018-05-09T07:05:27.482Z,97940.14
2018-05-09T07:07:56.161Z,97944.37
2018-05-09T07:10:24.950Z,97952.80
2018-05-09T07:12:54.133Z,97950.98
2018-05-09T07:15:23.146Z,97945.12
2018-05-09T07:17:52.744Z,97944.98
2018-05-09T07:20:22.402Z,97945.80
2018-05-09T07:22:51.182Z,97934.44
2018-05-09T07:25:21.531Z,97941.67
2018-05-09T07:27:52.075Z,97934.92
2018-05-09T07:30:21.081Z,97936.89
2018-05-09T07:32:49.771Z,97935.17
2018-05-09T07:35:18.574Z,97935.58
2018-05-09T07:37:48.206Z,97941.27
2018-05-09T07:40:18.004Z,97939.58
2018-05-09T07:42:49.028Z,97939.14
2018-05-09T07:45:20.007Z,97938.52
2018-05-09T07:47:50.369Z,97932.70
2018-05-09T07:50:20.759Z,97930.63
2018-05-09T07:52:50.499Z,97931.44
2018-05-09T07:55:21.707Z,97940.39
2018-05-09T07:57:50.434Z,97938.87
2018-05-09T08:00:20.116Z,97939.68
2018-05-09T08:02:49.764Z,97943.57
2018-05-09T08:05:18.740Z,97945.09
2018-05-09T08:07:47.722Z,97942.97
2018-05-09T08:10:16.417Z,97941.23
2018-05-09T08:12:45.112Z,97950.37
2018-05-09T08:15:13.982Z,97952.89
2018-05-09T08:17:43.914Z,97953.17
2018-05-09T08:20:12.938Z,97949.14
2018-05-09T08:22:42.115Z,97957.78
2018-05-09T08:25:10.747Z,97957.14
2018-05-09T08:27:39.427Z,97953.45
2018-05-09T08:30:08.532Z,97959.25
2018-05-09T08:32:37.347Z,97951.81
2018-05-09T08:35:06.344Z,97962.55
2018-05-09T08:37:35.076Z,97956.51
2018-05-09T08:40:04.095Z,97951.39
2018-05-09T08:42:32.928Z,97952.63
2018-05-09T08:45:01.672Z,97950.82
2018-05-09T08:47:30.992Z,97951.91
2018-05-09T08:50:00.560Z,97958.77
2018-05-09T08:52:30.466Z,97954.67
2018-05-09T08:55:00.024Z,97956.73
2018-05-09T08:57:29.529Z,97956.05
2018-05-09T08:59:58.162Z,97956.42
2018-05-09T09:02:26.829Z,97953.61
2018-05-09T09:04:55.836Z,97959.13
2018-05-09T09:07:26.792Z,97956.22
2018-05-09T09:09:56.092Z,97950.38
2018-05-09T09:12:24.785Z,97951.38
2018-05-09T09:14:53.297Z,97954.42
2018-05-09T09:17:22.324Z,97954.06
2018-05-09T09:19:50.950Z,97949.98
2018-05-09T09:22:20.798Z,97953.02
2018-05-09T09:24:49.821Z,97950.13
2018-05-09T09:27:19.077Z,97952.14
2018-05-09T09:29:47.713Z,97955.02
2018-05-09T09:32:17.091Z,97951.04
2018-05-09T09:34:45.853Z,97946.08
2018-05-09T09:37:15.191Z,97948.80
2018-05-09T09:39:44.168Z,97944.48
2018-05-09T09:42:12.946Z,97941.16
2018-05-09T09:44:42.803Z,97940.47
2018-05-09T09:47:11.880Z,97942.23
2018-05-09T09:49:40.801Z,97937.67
2018-05-09T09:52:09.805Z,97939.34
2018-05-09T09:54:39.193Z,97935.55
2018-05-09T09:57:09.202Z,97928.08
2018-05-09T09:59:37.979Z,97926.58
2018-05-09T10:02:06.681Z,97937.20
2018-05-09T10:04:35.289Z,97928.55
2018-05-09T10:07:03.902Z,97926.05
2018-05-09T10:09:32.559Z,97922.46
2018-05-09T10:12:01.207Z,97930.39
2018-05-09T10:14:30.643Z,97927.56
2018-05-09T10:16:59.936Z,97921.38
2018-05-09T10:19:28.972Z,97923.10
2018-05-09T10:21:57.986Z,97923.53
2018-05-09T10:24:27.617Z,97919.92
2018-05-09T10:26:57.606Z,97918.48
2018-05-09T10:29:29.371Z,97917.31
2018-05-09T10:31:58.537Z,97913.58
2018-05-09T10:34:28.792Z,97911.88
2018-05-09T10:36:57.491Z,97910.23
2018-05-09T10:39:26.400Z,97916.22
2018-05-09T10:41:55.157Z,97912.53
2018-05-09T10:44:25.105Z,97911.08
2018-05-09T10:46:54.397Z,97909.84
2018-05-09T10:49:23.098Z,97908.85
2018-05-09T10:51:52.475Z,97903.66
2018-05-09T10:54:22.389Z,97899.69
2018-05-09T10:56:51.611Z,97897.41
2018-05-09T10:59:21.095Z,97891.02
2018-05-09T11:01:50.002Z,97885.25
2018-05-09T11:04:18.706Z,97887.84
2018-05-09T11:06:47.509Z,97884.19
2018-05-09T11:09:16.047Z,97886.14
2018-05-09T11:11:45.552Z,97875.28
2018-05-09T11:14:15.611Z,97875.86
2018-05-09T11:16:45.005Z,97870.42
2018-05-09T11:19:14.019Z,97876.07
2018-05-09T11:21:44.373Z,97868.76
2018-05-09T11:24:13.370Z,97861.71
2018-05-09T11:26:42.459Z,97859.08
2018-05-09T11:29:11.959Z,97852.84
2018-05-09T11:31:40.739Z,97852.00
2018-05-09T11:34:09.229Z,97850.47
2018-05-09T11:36:37.842Z,97847.94
2018-05-09T11:39:06.904Z,97845.28
2018-05-09T11:41:35.808Z,97843.42
2018-05-09T11:44:04.517Z,97838.08
2018-05-09T11:46:33.407Z,97839.28
2018-05-09T11:49:02.898Z,97833.78
2018-05-09T11:51:32.126Z,97834.11
2018-05-09T11:54:01.151Z,97831.00
2018-05-09T11:56:31.192Z,97823.64
2018-05-09T11:59:00.807Z,97825.23
2018-05-09T12:01:29.634Z,97815.50
2018-05-09T12:03:58.737Z,97815.16
2018-05-09T12:06:28.156Z,97813.41
2018-05-09T12:08:57.526Z,97817.77
2018-05-09T12:11:27.557Z,97808.55
2018-05-09T12:13:58.004Z,97806.13
2018-05-09T12:16:27.391Z,97805.30
2018-05-09T12:18:58.048Z,97800.31
2018-05-09T12:21:27.069Z,97797.27
2018-05-09T12:23:57.244Z,97793.91
2018-05-09T12:26:26.236Z,97789.00
2018-05-09T12:28:54.920Z,97797.44
2018-05-09T12:31:23.719Z,97791.95
2018-05-09T12:33:53.114Z,97792.42
2018-05-09T12:36:21.713Z,97790.21
2018-05-09T12:38:50.465Z,97784.73
2018-05-09T12:41:19.256Z,97786.16
2018-05-09T12:43:47.922Z,97779.55
2018-05-09T12:46:16.538Z,97781.48
2018-05-09T12:48:45.159Z,97783.45
2018-05-09T12:51:14.621Z,97780.75
2018-05-09T12:53:43.914Z,97776.03
2018-05-09T12:56:14.422Z,97776.62
2018-05-09T12:58:44.340Z,97782.69
2018-05-09T13:01:15.113Z,97784.31
2018-05-09T13:03:43.957Z,97787.95
2018-05-09T13:06:14.776Z,97781.63
2018-05-09T13:08:45.076Z,97778.37
2018-05-09T13:11:14.743Z,97761.88
2018-05-09T13:13:44.215Z,97763.96
2018-05-09T13:16:13.192Z,97761.86
2018-05-09T13:18:42.959Z,97764.50
2018-05-09T13:21:13.293Z,97757.63
2018-05-09T13:23:43.851Z,97751.06
2018-05-09T13:26:13.509Z,97746.85
2018-05-09T13:28:42.201Z,97747.91
2018-05-09T13:31:12.023Z,97744.94
2018-05-09T13:33:41.786Z,97742.33
2018-05-09T13:36:10.672Z,97745.36
2018-05-09T13:38:41.183Z,97744.86
2018-05-09T13:41:09.847Z,97739.66
2018-05-09T13:43:38.441Z,97747.54
2018-05-09T13:46:07.167Z,97747.33
2018-05-09T13:48:35.902Z,97748.73
2018-05-09T13:51:05.342Z,97750.08
2018-05-09T13:53:34.950Z,97743.48
2018-05-09T13:56:03.882Z,97737.01
2018-05-09T13:58:32.630Z,97738.98
2018-05-09T14:01:01.455Z,97746.96
2018-05-09T14:03:30.360Z,97746.34
2018-05-09T14:05:59.114Z,97744.72
2018-05-09T14:08:27.998Z,97745.23
2018-05-09T14:10:56.845Z,97736.94
2018-05-09T14:13:26.368Z,97734.95
2018-05-09T14:15:54.984Z,97727.91
2018-05-09T14:18:24.374Z,97739.52
2018-05-09T14:20:53.426Z,97756.22
2018-05-09T14:23:22.833Z,97776.70
2018-05-09T14:25:52.131Z,97777.68
2018-05-09T14:28:20.988Z,97760.22
2018-05-09T14:30:50.923Z,97755.99
2018-05-09T14:33:19.796Z,97770.09
2018-05-09T14:35:48.629Z,97778.16
2018-05-09T14:38:17.823Z,97789.69
2018-05-09T14:40:47.809Z,97808.11
2018-05-09T14:43:16.966Z,97832.58
2018-05-09T14:45:45.679Z,97834.84
2018-05-09T14:48:15.213Z,97839.48
2018-05-09T14:50:44.217Z,97841.09
2018-05-09T14:53:13.235Z,97849.70
2018-05-09T14:55:43.385Z,97847.69
2018-05-09T14:58:13.411Z,97854.81
2018-05-09T15:00:42.083Z,97850.72
2018-05-09T15:03:11.709Z,97849.09
2018-05-09T15:05:40.502Z,97849.32
2018-05-09T15:08:09.250Z,97845.93
2018-05-09T15:10:38.349Z,97842.80
2018-05-09T15:13:07.045Z,97841.84
2018-05-09T15:15:35.718Z,97843.67
2018-05-09T15:18:04.388Z,97856.66
2018-05-09T15:20:34.562Z,97875.34
2018-05-09T15:23:04.168Z,97891.20
2018-05-09T15:25:33.347Z,97901.79
2018-05-09T15:28:03.407Z,97909.44
2018-05-09T15:30:32.166Z,97922.90
2018-05-09T15:33:08.451Z,97918.89
2018-05-09T15:35:38.965Z,97922.13
2018-05-09T15:38:11.583Z,97924.28
2018-05-09T15:40:41.065Z,97921.98
2018-05-09T15:43:12.496Z,97919.05
2018-05-09T15:45:45.615Z,97917.91
2018-05-09T15:48:20.132Z,97910.50
2018-05-09T15:50:51.458Z,97908.53
2018-05-09T15:53:21.591Z,97901.73
2018-05-09T15:55:51.707Z,97897.39
2018-05-09T15:58:21.479Z,97897.13
2018-05-09T16:00:51.610Z,97893.25
2018-05-09T16:03:21.581Z,97889.85
2018-05-09T16:05:51.496Z,97886.12
2018-05-09T16:08:20.370Z,97884.59
2018-05-09T16:10:49.096Z,97874.72
2018-05-09T16:13:21.529Z,97869.41
2018-05-09T16:15:50.273Z,97863.39
2018-05-09T16:18:19.435Z,97869.98
2018-05-09T16:20:48.906Z,97884.16
2018-05-09T16:23:19.673Z,97879.95
2018-05-09T16:25:49.724Z,97887.63
2018-05-09T16:28:18.491Z,97882.52
2018-05-09T16:30:47.930Z,97890.94
2018-05-09T16:33:18.089Z,97898.98
2018-05-09T16:35:46.925Z,97902.41
2018-05-09T16:38:17.683Z,97902.63
2018-05-09T16:40:47.263Z,97904.10
2018-05-09T16:43:17.395Z,97898.51
2018-05-09T16:45:46.953Z,97890.77
2018-05-09T16:48:15.634Z,97899.83
2018-05-09T16:50:45.550Z,97904.65
2018-05-09T16:53:15.358Z,97908.39
2018-05-09T16:55:44.556Z,97909.17
2018-05-09T16:58:13.965Z,97918.33
2018-05-09T17:00:43.233Z,97918.61
2018-05-09T17:03:12.792Z,97918.06
2018-05-09T17:05:41.524Z,97919.76
2018-05-09T17:08:10.595Z,97917.94
2018-05-09T17:10:39.279Z,97933.39
2018-05-09T17:13:08.391Z,97936.73
2018-05-09T17:15:37.180Z,97928.95
2018-05-09T17:18:08.796Z,97932.89
2018-05-09T17:20:39.422Z,97937.17
2018-05-09T17:23:10.743Z,97945.59
2018-05-09T17:25:40.599Z,97942.78
2018-05-09T17:28:10.243Z,97949.64
2018-05-09T17:30:40.097Z,97954.58
2018-05-09T17:33:09.039Z,97953.65
2018-05-09T17:35:40.079Z,97956.77
2018-05-09T17:38:09.381Z,97955.29
2018-05-09T17:40:38.288Z,97962.84
2018-05-09T17:43:07.056Z,97968.14
2018-05-09T17:45:37.520Z,97972.67
2018-05-09T17:48:06.172Z,97972.75
2018-05-09T17:50:35.285Z,97973.48
2018-05-09T17:53:05.088Z,97974.98
2018-05-09T17:55:34.190Z,97974.91
2018-05-09T17:58:03.212Z,97966.67
2018-05-09T18:00:32.151Z,97967.81
2018-05-09T18:03:00.842Z,97963.19
2018-05-09T18:05:29.551Z,97965.15
2018-05-09T18:07:58.299Z,97964.56
2018-05-09T18:10:27.027Z,97966.94
2018-05-09T18:12:57.733Z,97963.14
2018-05-09T18:15:26.343Z,97963.86
2018-05-09T18:17:54.946Z,97959.11
2018-05-09T18:20:23.782Z,97952.20
2018-05-09T18:22:52.970Z,97962.85
2018-05-09T18:25:22.442Z,97963.36
2018-05-09T18:27:52.567Z,97958.69
2018-05-09T18:30:22.113Z,97954.36
2018-05-09T18:32:51.549Z,97956.17
2018-05-09T18:35:21.062Z,97959.89
2018-05-09T18:37:52.454Z,97953.13
2018-05-09T18:40:21.140Z,97956.44
2018-05-09T18:42:50.585Z,97956.20
2018-05-09T18:45:19.203Z,97955.31
2018-05-09T18:47:48.794Z,97955.80
2018-05-09T18:50:18.674Z,97952.92
2018-05-09T18:52:49.206Z,97958.44
2018-05-09T18:55:19.216Z,97953.41
2018-05-09T18:57:48.807Z,97958.27
2018-05-09T19:00:19.464Z,97963.12
2018-05-09T19:02:48.608Z,97966.28
2018-05-09T19:05:17.254Z,97970.13
2018-05-09T19:07:45.931Z,97972.46
2018-05-09T19:10:16.269Z,97977.48
2018-05-09T19:12:45.170Z,97978.36
2018-05-09T19:15:18.135Z,97981.41
2018-05-09T19:17:47.991Z,97985.53
2018-05-09T19:20:17.617Z,97984.39
2018-05-09T19:22:46.190Z,97985.95
2018-05-09T19:25:14.967Z,97986.42
2018-05-09T19:27:46.200Z,97987.82
2018-05-09T19:30:15.867Z,97985.17
2018-05-09T19:32:46.400Z,97977.09
2018-05-09T19:35:15.216Z,97973.80
2018-05-09T19:37:44.914Z,97973.06
2018-05-09T19:40:19.237Z,97976.52
2018-05-09T19:42:48.496Z,97978.33
2018-05-09T19:45:18.280Z,97975.69
2018-05-09T19:47:48.044Z,97975.44
2018-05-09T19:50:17.419Z,97979.52
2018-05-09T19:52:46.055Z,97976.66
2018-05-09T19:55:14.783Z,97975.09
2018-05-09T19:57:43.763Z,97978.22
2018-05-09T20:00:13.128Z,97981.35
2018-05-09T20:02:42.100Z,97986.19
2018-05-09T20:05:10.920Z,97989.14
2018-05-09T20:07:40.325Z,97996.43
2018-05-09T20:10:11.352Z,97994.14
2018-05-09T20:12:41.306Z,97995.38
2018-05-09T20:15:10.328Z,97994.08
2018-05-09T20:17:39.467Z,97993.88
2018-05-09T20:20:09.894Z,98007.98
2018-05-09T20:22:38.874Z,97997.28
2018-05-09T20:25:08.532Z,98001.38
2018-05-09T20:27:37.398Z,98006.08
2018-05-09T20:30:12.253Z,98007.69
2018-05-09T20:32:41.918Z,98008.48
2018-05-09T20:35:11.782Z,98012.30
2018-05-09T20:37:41.546Z,98015.83
2018-05-09T20:40:11.227Z,98015.88
2018-05-09T20:42:39.911Z,98019.59
2018-05-09T20:45:08.873Z,98016.30
2018-05-09T20:47:37.685Z,98019.02
2018-05-09T20:50:06.679Z,98020.30
2018-05-09T20:52:35.664Z,98021.00
2018-05-09T20:58:10.425Z,98026.31
2018-05-09T21:00:39.226Z,98025.88
2018-05-09T21:03:07.931Z,98034.63
2018-05-09T21:05:36.801Z,98028.92
2018-05-09T21:08:06.918Z,98035.48
2018-05-09T21:10:35.949Z,98038.84
2018-05-09T21:13:04.555Z,98043.53
2018-05-09T21:15:36.193Z,98047.64
2018-05-09T21:18:04.983Z,98046.02
2018-05-09T21:20:33.647Z,98044.41
2018-05-09T21:23:02.357Z,98043.30
2018-05-09T21:25:31.059Z,98046.55
2018-05-09T21:28:00.048Z,98046.47
2018-05-09T21:30:28.717Z,98045.16
2018-05-09T21:32:57.320Z,98044.76
2018-05-09T21:35:26.756Z,98045.17
2018-05-09T21:37:55.670Z,98043.27
2018-05-09T21:40:24.390Z,98041.59
2018-05-09T21:42:53.825Z,98039.94
2018-05-09T21:45:22.406Z,98040.00
2018-05-09T21:47:51.009Z,98048.73
2018-05-09T21:50:20.939Z,98039.45
2018-05-09T21:52:49.548Z,98043.63
2018-05-09T21:55:18.186Z,98047.06
2018-05-09T21:57:46.755Z,98043.70
2018-05-09T22:00:16.174Z,98046.03
2018-05-09T22:02:45.546Z,98046.52
2018-05-09T22:05:14.134Z,98045.10
2018-05-09T22:07:42.789Z,98044.64
2018-05-09T22:10:11.522Z,98051.80
2018-05-09T22:12:40.508Z,98049.66
2018-05-09T22:15:09.788Z,98046.89
2018-05-09T22:17:39.423Z,98051.45
2018-05-09T22:20:08.037Z,98055.52
2018-05-09T22:22:36.648Z,98044.47
2018-05-09T22:25:05.337Z,98048.29
2018-05-09T22:27:34.006Z,98051.45
2018-05-09T22:30:02.543Z,98055.56
2018-05-09T22:32:31.251Z,98049.56
2018-05-09T22:34:59.912Z,98055.17
2018-05-09T22:37:29.311Z,98048.52
2018-05-09T22:39:57.979Z,98056.14
2018-05-09T22:42:26.600Z,98054.02
2018-05-09T22:44:55.412Z,98050.63
2018-05-09T22:47:24.330Z,98047.00
2018-05-09T22:49:53.610Z,98046.74
2018-05-09T22:52:23.668Z,98049.83
2018-05-09T22:54:52.556Z,98038.98
2018-05-09T22:57:21.274Z,98041.50
2018-05-09T22:59:50.043Z,98044.00
2018-05-09T23:02:18.867Z,98044.13
2018-05-09T23:04:47.625Z,98038.11
2018-05-09T23:07:16.442Z,98042.02
2018-05-09T23:09:45.177Z,98042.67
2018-05-09T23:12:13.951Z,98043.06
2018-05-09T23:14:42.656Z,98039.76
2018-05-09T23:17:11.570Z,98044.02
2018-05-09T23:19:42.600Z,98045.75
2018-05-09T23:22:12.562Z,98040.08
2018-05-09T23:24:41.303Z,98041.55
2018-05-09T23:27:10.085Z,98039.15
2018-05-09T23:29:39.504Z,98032.13
2018-05-09T23:32:08.594Z,98032.70
2018-05-09T23:34:37.363Z,98032.61
2018-05-09T23:37:06.580Z,98033.73
2018-05-09T23:39:35.364Z,98032.81
2018-05-09T23:42:04.123Z,98039.86
2018-05-09T23:44:32.656Z,98032.08
2018-05-09T23:47:02.052Z,98035.80
2018-05-09T23:49:32.163Z,98035.57
2018-05-09T23:52:01.371Z,98040.67
2018-05-09T23:54:30.976Z,98042.94
2018-05-09T23:57:00.474Z,98040.46
2018-05-09T23:59:29.215Z,98037.55
